Time;durP1;ratioP1;P1;durP2;ratioP2;P2;SDS_P1;SDS_P2;PMS_P1;PMS_P2;Temp;Humidity;BMP_temperature;BMP_pressure;BME280_temperature;BME280_humidity;BME280_pressure;Samples;Min_cycle;Max_cycle;Signal;HPM_P1;HPM_P2
2023/10/08 00:01:17;;;;;;;1.60;0.30;;;;;;;12.37;100.00;99070.52;106337;1254;65748;-51
2023/10/08 00:03:51;;;;;;;1.10;0.20;;;;;;;12.27;100.00;99068.85;104709;1258;72812;-52
2023/10/08 00:06:20;;;;;;;0.60;0.20;;;;;;;12.18;100.00;99061.40;106789;1257;60556;-51
2023/10/08 00:08:48;;;;;;;1.80;0.30;;;;;;;12.10;100.00;99049.65;108747;1254;58826;-50
2023/10/08 00:11:16;;;;;;;1.50;0.30;;;;;;;12.04;100.00;99056.34;108482;1254;73047;-49
2023/10/08 00:13:44;;;;;;;0.90;0.30;;;;;;;11.99;100.00;99071.08;108847;1254;67972;-50
2023/10/08 00:16:15;;;;;;;0.80;0.30;;;;;;;11.94;100.00;99074.45;108760;1257;71403;-50
2023/10/08 00:18:48;;;;;;;0.80;0.20;;;;;;;11.87;100.00;99076.55;108834;1254;60476;-50
2023/10/08 00:21:25;;;;;;;1.70;0.30;;;;;;;11.80;100.00;99082.05;108855;1254;60165;-51
2023/10/08 00:23:58;;;;;;;4.90;0.40;;;;;;;11.73;100.00;99087.29;108750;1254;74210;-50
2023/10/08 00:26:27;;;;;;;1.20;0.20;;;;;;;11.67;100.00;99083.86;108679;1254;68567;-50
2023/10/08 00:28:57;;;;;;;0.80;0.30;;;;;;;11.62;100.00;99088.15;108974;1255;76385;-50
2023/10/08 00:31:26;;;;;;;1.40;0.30;;;;;;;11.54;100.00;99089.01;108743;1254;58770;-50
2023/10/08 00:33:53;;;;;;;0.40;0.30;;;;;;;11.47;100.00;99100.28;108941;1254;60093;-50
2023/10/08 00:36:20;;;;;;;1.00;0.30;;;;;;;11.39;100.00;99111.55;106483;1255;73330;-50
2023/10/08 00:38:51;;;;;;;0.70;0.30;;;;;;;11.30;100.00;99119.11;104650;1254;69879;-50
2023/10/08 00:41:21;;;;;;;1.10;0.30;;;;;;;11.20;100.00;99117.70;104595;1264;73216;-48
2023/10/08 00:43:49;;;;;;;0.90;0.30;;;;;;;11.08;100.00;99119.91;104607;1260;60568;-50
2023/10/08 00:46:30;;;;;;;0.50;0.30;;;;;;;10.95;100.00;99120.32;104667;1254;60905;-49
2023/10/08 00:49:10;;;;;;;3.80;0.30;;;;;;;10.82;100.00;99122.37;108841;1259;73891;-50
2023/10/08 00:51:41;;;;;;;0.90;0.50;;;;;;;10.70;100.00;99125.91;108835;1254;65816;-51
2023/10/08 00:54:09;;;;;;;1.00;0.30;;;;;;;10.61;100.00;99128.99;108892;1257;71436;-51
2023/10/08 00:59:24;;;;;;;1.50;0.30;;;;;;;10.50;100.00;99132.33;104931;1258;60478;-50
2023/10/08 01:01:58;;;;;;;2.00;0.30;;;;;;;10.48;100.00;99137.63;105273;1258;73831;-51
2023/10/08 01:04:26;;;;;;;0.70;0.30;;;;;;;10.45;100.00;99144.80;106513;1260;67381;-49
2023/10/08 01:07:01;;;;;;;1.30;0.40;;;;;;;10.40;100.00;99144.16;104683;1260;71487;-51
2023/10/08 01:09:35;;;;;;;0.50;0.30;;;;;;;10.36;100.00;99147.84;104867;1260;60713;-49
2023/10/08 01:12:18;;;;;;;0.50;0.30;;;;;;;10.29;100.00;99139.44;105315;1260;61092;-49
2023/10/08 01:14:46;;;;;;;1.60;0.30;;;;;;;10.22;100.00;99134.96;105248;1257;74781;-50
2023/10/08 01:17:16;;;;;;;2.60;0.30;;;;;;;10.16;100.00;99135.85;105411;1260;68015;-55
2023/10/08 01:19:45;;;;;;;3.60;0.30;;;;;;;10.11;100.00;99138.81;105368;1254;72774;-48
2023/10/08 01:22:17;;;;;;;0.70;0.40;;;;;;;10.08;100.00;99137.71;105307;1261;60469;-49
2023/10/08 01:24:48;;;;;;;2.00;0.40;;;;;;;10.04;100.00;99130.59;104782;1259;60556;-49
2023/10/08 01:27:24;;;;;;;0.50;0.20;;;;;;;10.01;100.00;99130.61;104821;1260;72641;-50
2023/10/08 01:32:09;;;;;;;0.60;0.40;;;;;;;9.98;100.00;99134.73;101487;1293;601568;-50
2023/10/08 01:34:37;;;;;;;0.80;0.30;;;;;;;9.92;100.00;99132.90;105514;1261;59590;-50
2023/10/08 01:37:08;;;;;;;1.10;0.30;;;;;;;9.90;100.00;99128.19;104458;1262;59257;-50
2023/10/08 01:39:36;;;;;;;1.80;0.30;;;;;;;9.86;100.00;99120.69;104463;1258;71371;-49
2023/10/08 01:42:05;;;;;;;1.00;0.20;;;;;;;9.80;100.00;99117.98;105301;1263;68054;-50
2023/10/08 01:44:33;;;;;;;1.20;0.20;;;;;;;9.75;100.00;99112.70;104516;1257;201800;-51
2023/10/08 01:47:01;;;;;;;0.50;0.30;;;;;;;9.70;100.00;99116.02;105585;1253;62955;-49
2023/10/08 01:49:33;;;;;;;1.40;0.30;;;;;;;9.67;100.00;99110.48;104881;1254;60326;-51
2023/10/08 01:52:07;;;;;;;2.40;0.30;;;;;;;9.65;100.00;99103.37;105132;1258;72307;-49
2023/10/08 01:54:37;;;;;;;1.00;0.30;;;;;;;9.65;100.00;99105.33;105488;1254;65869;-49
2023/10/08 01:57:05;;;;;;;0.70;0.20;;;;;;;9.67;100.00;99106.31;105057;1261;72477;-48
2023/10/08 01:59:33;;;;;;;1.50;0.30;;;;;;;9.69;100.00;99106.91;104808;1257;61758;-48
2023/10/08 02:02:00;;;;;;;1.60;0.30;;;;;;;9.71;100.00;99106.29;104830;1259;59697;-49
2023/10/08 02:04:27;;;;;;;0.70;0.30;;;;;;;9.73;100.00;99107.27;104889;1257;73896;-48
2023/10/08 02:06:55;;;;;;;0.70;0.30;;;;;;;9.73;100.00;99107.80;105015;1257;68018;-49
2023/10/08 02:09:26;;;;;;;1.00;0.30;;;;;;;9.71;100.00;99110.21;104860;1254;72730;-48
2023/10/08 02:11:54;;;;;;;1.20;0.30;;;;;;;9.69;100.00;99111.94;105002;1254;59713;-48
2023/10/08 02:14:22;;;;;;;0.90;0.20;;;;;;;9.65;100.00;99109.45;104958;1254;60535;-51
2023/10/08 02:16:52;;;;;;;1.30;0.30;;;;;;;9.63;100.00;99107.77;104887;1254;72970;-47
2023/10/08 02:19:26;;;;;;;1.50;0.30;;;;;;;9.61;100.00;99105.95;104780;1254;67864;-50
2023/10/08 02:21:56;;;;;;;1.30;0.40;;;;;;;9.59;100.00;99106.25;104916;1254;73589;-51
2023/10/08 02:24:24;;;;;;;1.10;0.20;;;;;;;9.59;100.00;99105.50;104984;1254;60484;-50
2023/10/08 02:26:52;;;;;;;0.50;0.20;;;;;;;9.59;100.00;99105.69;104807;1254;59727;-50
2023/10/08 02:29:19;;;;;;;2.50;0.30;;;;;;;9.59;100.00;99102.13;104955;1257;73693;-51
2023/10/08 02:31:47;;;;;;;1.80;0.30;;;;;;;9.60;100.00;99102.77;104659;1260;66777;-48
2023/10/08 02:34:15;;;;;;;1.20;0.30;;;;;;;9.63;100.00;99111.03;104845;1257;72694;-50
2023/10/08 02:36:42;;;;;;;0.80;0.30;;;;;;;9.63;100.00;99116.19;105233;1259;59764;-47
2023/10/08 02:39:21;;;;;;;1.20;0.20;;;;;;;9.64;100.00;99121.01;105889;1254;59883;-49
2023/10/08 02:41:49;;;;;;;1.10;0.30;;;;;;;9.62;100.00;99113.20;104825;1254;73044;-49
2023/10/08 02:44:17;;;;;;;1.30;0.20;;;;;;;9.60;100.00;99111.58;104844;1257;66827;-48
2023/10/08 02:46:47;;;;;;;0.50;0.30;;;;;;;9.54;100.00;99109.36;105127;1256;71438;-49
2023/10/08 02:49:22;;;;;;;1.70;0.50;;;;;;;9.49;100.00;99112.87;105349;1258;60476;-49
2023/10/08 02:51:54;;;;;;;0.60;0.30;;;;;;;9.45;100.00;99114.52;104840;1254;59698;-48
2023/10/08 02:54:31;;;;;;;0.90;0.30;;;;;;;9.41;100.00;99121.88;105188;1254;73123;-48
2023/10/08 02:57:03;;;;;;;3.20;0.30;;;;;;;9.39;100.00;99124.67;104878;1260;66796;-47
2023/10/08 02:59:41;;;;;;;1.10;0.30;;;;;;;9.37;100.00;99129.61;104942;1261;71525;-50
2023/10/08 03:02:21;;;;;;;1.50;0.30;;;;;;;9.36;100.00;99127.92;104844;1258;59762;-50
2023/10/08 03:04:52;;;;;;;0.70;0.20;;;;;;;9.36;100.00;99129.31;105566;1263;60070;-48
2023/10/08 03:07:32;;;;;;;1.20;0.30;;;;;;;9.37;100.00;99134.09;105040;1260;73507;-47
2023/10/08 03:10:03;;;;;;;3.40;0.30;;;;;;;9.39;100.00;99142.58;105954;1260;68338;-48
2023/10/08 03:12:35;;;;;;;3.20;0.30;;;;;;;9.39;100.00;99139.04;108937;1254;72751;-51
2023/10/08 03:17:50;;;;;;;0.60;0.20;;;;;;;9.32;100.00;99139.04;104880;1257;59586;-49
2023/10/08 03:23:58;;;;;;;0.90;0.30;;;;;;;9.27;100.00;99147.02;104775;1256;66488;-49
2023/10/08 03:26:00;;;;;;;2.00;0.30;;;;;;;9.28;100.00;99148.36;108353;1256;72467;-51
2023/10/08 03:28:29;;;;;;;0.60;0.30;;;;;;;9.28;100.00;99145.86;108807;1254;60115;-48
2023/10/08 03:31:03;;;;;;;0.70;0.20;;;;;;;9.27;100.00;99145.92;104712;1260;59703;-49
2023/10/08 03:33:34;;;;;;;1.30;0.30;;;;;;;9.26;100.00;99148.33;108851;1254;72017;-50
2023/10/08 03:36:34;;;;;;;0.50;0.30;;;;;;;9.26;100.00;99142.95;109075;1255;68087;-51
2023/10/08 03:38:50;;;;;;;0.40;0.30;;;;;;;9.26;100.00;99142.21;106564;1253;71425;-50
2023/10/08 03:41:29;;;;;;;0.90;0.20;;;;;;;9.26;100.00;99144.52;107049;1254;60720;-51
2023/10/08 03:44:06;;;;;;;1.00;0.20;;;;;;;9.25;100.00;99149.06;109062;1254;60890;-50
2023/10/08 03:46:40;;;;;;;3.40;0.30;;;;;;;9.21;100.00;99144.63;109049;1253;73019;-50
2023/10/08 03:49:24;;;;;;;1.30;0.20;;;;;;;9.17;100.00;99142.86;105185;1257;66784;-49
2023/10/08 03:51:52;;;;;;;0.60;0.30;;;;;;;9.13;100.00;99139.83;108565;1254;71476;-48
2023/10/08 03:54:29;;;;;;;0.40;0.20;;;;;;;9.11;100.00;99142.26;104848;1259;61711;-47
2023/10/08 03:56:57;;;;;;;2.10;0.30;;;;;;;9.10;100.00;99152.15;104928;1254;60043;-48
2023/10/08 03:59:31;;;;;;;0.40;0.20;;;;;;;9.08;100.00;99156.75;104808;1257;73122;-49
2023/10/08 04:02:08;;;;;;;0.50;0.20;;;;;;;9.07;100.00;99158.76;109057;1254;66774;-49
2023/10/08 04:04:51;;;;;;;1.10;0.30;;;;;;;9.05;100.00;99158.85;105586;1256;71399;-47
2023/10/08 04:07:28;;;;;;;0.70;0.30;;;;;;;9.04;100.00;99161.27;105024;1254;60211;-48
2023/10/08 04:12:43;;;;;;;1.70;0.30;;;;;;;9.01;100.00;99172.01;105043;1253;71825;-48
2023/10/08 04:15:16;;;;;;;0.40;0.20;;;;;;;8.99;100.00;99171.90;105319;1254;67745;-50
2023/10/08 04:17:44;;;;;;;0.40;0.20;;;;;;;8.96;100.00;99170.08;104792;1259;71418;-47
2023/10/08 04:23:00;;;;;;;2.10;0.20;;;;;;;8.91;100.00;99186.45;104667;1254;59740;-50
2023/10/08 04:25:28;;;;;;;0.70;0.30;;;;;;;8.89;100.00;99182.60;104687;1260;71661;-51
2023/10/08 04:27:59;;;;;;;1.50;0.20;;;;;;;8.91;100.00;99189.52;104697;1253;65646;-49
2023/10/08 04:30:32;;;;;;;0.40;0.30;;;;;;;8.93;100.00;99194.96;104610;1253;72730;-50
2023/10/08 04:33:07;;;;;;;1.40;0.40;;;;;;;8.94;100.00;99205.23;108602;1256;60176;-49
2023/10/08 04:35:47;;;;;;;1.50;0.30;;;;;;;8.96;100.00;99212.66;108976;1254;58817;-49
2023/10/08 04:38:18;;;;;;;1.70;0.20;;;;;;;8.97;100.00;99220.67;108887;1254;73233;-50
2023/10/08 04:40:51;;;;;;;1.80;0.20;;;;;;;8.98;100.00;99223.14;105107;1254;65682;-48
2023/10/08 04:43:25;;;;;;;0.50;0.30;;;;;;;9.00;100.00;99218.76;104790;1257;71469;-48
2023/10/08 04:46:05;;;;;;;0.50;0.20;;;;;;;8.99;100.00;99220.92;105444;1257;60101;-49
2023/10/08 04:48:32;;;;;;;1.10;0.30;;;;;;;8.99;100.00;99217.36;105294;1259;60031;-51
2023/10/08 04:51:01;;;;;;;2.20;0.30;;;;;;;8.99;100.00;99220.23;104826;1253;71968;-49
2023/10/08 04:53:36;;;;;;;0.80;0.30;;;;;;;8.99;100.00;99213.27;104684;1254;66924;-49
2023/10/08 04:56:06;;;;;;;1.70;0.20;;;;;;;8.96;100.00;99213.19;106833;1254;72786;-49
2023/10/08 04:58:36;;;;;;;2.00;0.30;;;;;;;8.94;100.00;99213.14;105498;1254;60542;-48
2023/10/08 05:09:22;;;;;;;2.00;0.30;;;;;;;8.91;100.00;99220.26;104586;1258;72797;-49
2023/10/08 05:17:11;;;;;;;0.50;0.20;;;;;;;8.89;100.00;99211.77;104479;1254;73504;-49
2023/10/08 05:25:08;;;;;;;1.00;0.20;;;;;;;8.85;100.00;99245.41;104769;1260;59785;-49
2023/10/08 05:28:24;;;;;;;0.80;0.20;;;;;;;8.85;100.00;99255.83;105087;1254;59740;-50
2023/10/08 05:38:23;;;;;;;0.20;0.10;;;;;;;8.87;100.00;99266.99;108782;1253;59188;-51
2023/10/08 05:57:38;;;;;;;1.60;0.30;;;;;;;9.00;100.00;99273.33;104832;1254;74427;-49
2023/10/08 06:13:09;;;;;;;0.90;0.30;;;;;;;9.08;100.00;99286.52;108995;1254;65487;-52
2023/10/08 06:15:48;;;;;;;0.80;0.30;;;;;;;9.08;100.00;99278.30;106253;1254;73163;-48
2023/10/08 06:18:18;;;;;;;0.50;0.30;;;;;;;9.10;100.00;99282.44;104904;1257;60534;-49
2023/10/08 06:20:46;;;;;;;0.60;0.20;;;;;;;9.10;100.00;99290.49;106268;1254;59228;-49
2023/10/08 06:23:18;;;;;;;3.00;0.30;;;;;;;9.11;100.00;99294.95;105852;1256;72389;-50
2023/10/08 06:25:46;;;;;;;1.30;0.20;;;;;;;9.11;100.00;99285.65;105915;1256;66980;-49
2023/10/08 06:28:20;;;;;;;1.20;0.30;;;;;;;9.13;100.00;99293.06;104947;1254;72747;-50
2023/10/08 06:30:48;;;;;;;1.20;0.60;;;;;;;9.14;100.00;99303.59;108979;1254;58365;-53
2023/10/08 06:33:18;;;;;;;0.60;0.20;;;;;;;9.14;100.00;99315.41;109057;1254;60542;-50
2023/10/08 06:36:01;;;;;;;0.50;0.30;;;;;;;9.12;100.00;99303.67;109064;1253;74348;-51
2023/10/08 06:38:30;;;;;;;2.40;0.30;;;;;;;9.11;100.00;99307.66;109056;1254;67029;-47
2023/10/08 06:44:05;;;;;;;2.20;0.40;;;;;;;9.16;100.00;99324.98;108983;1254;58548;-50
2023/10/08 06:46:32;;;;;;;0.90;0.30;;;;;;;9.18;100.00;99325.80;109106;1257;60474;-47
2023/10/08 06:49:11;;;;;;;1.00;0.30;;;;;;;9.19;100.00;99329.45;109099;1253;74029;-50
2023/10/08 06:51:41;;;;;;;0.40;0.20;;;;;;;9.23;100.00;99338.44;109073;1254;67130;-50
2023/10/08 06:54:13;;;;;;;1.20;0.20;;;;;;;9.25;100.00;99342.46;109030;1254;71480;-50
2023/10/08 06:56:51;;;;;;;0.90;0.20;;;;;;;9.27;100.00;99341.95;109074;1254;58802;-50
2023/10/08 06:59:23;;;;;;;0.70;0.20;;;;;;;9.29;100.00;99335.58;105740;1254;60533;-49
2023/10/08 07:01:51;;;;;;;0.40;0.20;;;;;;;9.31;100.00;99344.07;105043;1254;72648;-48
2023/10/08 07:04:21;;;;;;;2.10;0.10;;;;;;;9.33;100.00;99344.38;109089;1254;66469;-50
2023/10/08 07:06:50;;;;;;;0.50;0.20;;;;;;;9.34;100.00;99348.61;105309;1254;71413;-50
2023/10/08 07:11:56;;;;;;;0.40;0.20;;;;;;;9.34;100.00;99352.57;104900;1259;59308;-50
2023/10/08 07:14:27;;;;;;;1.40;0.10;;;;;;;9.31;100.00;99357.86;106056;1254;72754;-50
2023/10/08 07:16:59;;;;;;;0.20;0.10;;;;;;;9.30;100.00;99359.36;105694;1257;66455;-49
2023/10/08 07:19:37;;;;;;;0.30;0.10;;;;;;;9.27;100.00;99355.19;104801;1254;73177;-50
2023/10/08 07:22:28;;;;;;;2.00;0.30;;;;;;;9.26;100.00;99352.93;104958;1254;60527;-50
2023/10/08 07:24:57;;;;;;;0.40;0.20;;;;;;;9.25;100.00;99350.11;105287;1259;60455;-50
2023/10/08 07:27:31;;;;;;;0.10;0.10;;;;;;;9.23;100.00;99345.77;105094;1254;73921;-50
2023/10/08 07:30:02;;;;;;;1.80;0.20;;;;;;;9.21;100.00;99352.67;105295;1254;68130;-46
2023/10/08 07:32:34;;;;;;;0.70;0.20;;;;;;;9.19;100.00;99363.64;105879;1253;71417;-47
2023/10/08 07:35:23;;;;;;;0.60;0.30;;;;;;;9.18;100.00;99361.95;104855;1257;60968;-51
2023/10/08 07:37:53;;;;;;;0.40;0.20;;;;;;;9.16;100.00;99365.27;104804;1254;60733;-48
2023/10/08 07:40:20;;;;;;;2.40;0.10;;;;;;;9.14;100.00;99369.45;106107;1259;73892;-49
2023/10/08 07:42:51;;;;;;;2.20;0.10;;;;;;;9.13;100.00;99378.28;104834;1254;68596;-48
2023/10/08 07:45:21;;;;;;;1.50;0.20;;;;;;;9.13;100.00;99380.25;105013;1254;72652;-51
2023/10/08 07:47:48;;;;;;;0.30;0.20;;;;;;;9.14;100.00;99373.96;104907;1256;60440;-47
2023/10/08 07:50:16;;;;;;;1.60;0.20;;;;;;;9.16;100.00;99378.15;105073;1259;60559;-49
2023/10/08 07:52:44;;;;;;;0.60;0.20;;;;;;;9.18;100.00;99372.70;104734;1254;73950;-51
2023/10/08 07:55:17;;;;;;;0.60;0.20;;;;;;;9.19;100.00;99380.13;104831;1254;68002;-48
2023/10/08 07:57:46;;;;;;;0.80;0.20;;;;;;;9.20;100.00;99386.86;105721;1257;72721;-50
2023/10/08 08:00:25;;;;;;;0.80;0.20;;;;;;;9.21;100.00;99386.50;104757;1254;60447;-48
2023/10/08 08:02:54;;;;;;;0.40;0.20;;;;;;;9.23;100.00;99384.95;109094;1254;58875;-49
2023/10/08 08:05:22;;;;;;;0.80;0.20;;;;;;;9.26;100.00;99384.29;108964;1254;73743;-50
2023/10/08 08:07:50;;;;;;;0.40;0.20;;;;;;;9.29;100.00;99388.60;108952;1254;66801;-50
2023/10/08 08:10:18;;;;;;;0.30;0.20;;;;;;;9.32;100.00;99389.20;109057;1253;71431;-48
2023/10/08 08:12:46;;;;;;;1.20;0.20;;;;;;;9.35;100.00;99386.67;108988;1254;58891;-50
2023/10/08 08:15:16;;;;;;;1.40;0.30;;;;;;;9.39;100.00;99384.70;108717;1254;60104;-50
2023/10/08 08:17:43;;;;;;;1.40;0.60;;;;;;;9.43;100.00;99381.46;104976;1254;73620;-47
2023/10/08 08:20:17;;;;;;;1.50;0.30;;;;;;;9.49;100.00;99376.52;104725;1254;66952;-50
2023/10/08 08:22:54;;;;;;;0.70;0.30;;;;;;;9.56;100.00;99378.67;105144;1254;72480;-47
2023/10/08 08:25:34;;;;;;;0.50;0.20;;;;;;;9.60;100.00;99381.52;105687;1259;61165;-48
2023/10/08 08:28:06;;;;;;;0.40;0.20;;;;;;;9.61;100.00;99381.29;105001;1259;60480;-48
2023/10/08 08:30:36;;;;;;;2.40;0.20;;;;;;;9.62;100.00;99387.83;105791;1254;74831;-49
2023/10/08 08:33:10;;;;;;;1.10;0.10;;;;;;;9.63;100.00;99394.08;104826;1259;66330;-48
2023/10/08 08:35:39;;;;;;;0.60;0.20;;;;;;;9.64;100.00;99383.09;104939;1254;71457;-50
2023/10/08 08:38:08;;;;;;;0.40;0.20;;;;;;;9.69;100.00;99383.36;108967;1256;59511;-49
2023/10/08 08:40:36;;;;;;;0.30;0.20;;;;;;;9.79;100.00;99387.35;108954;1254;60473;-49
2023/10/08 08:43:05;;;;;;;3.10;0.20;;;;;;;9.87;100.00;99386.77;104966;1253;73904;-48
2023/10/08 08:45:33;;;;;;;0.40;0.20;;;;;;;9.93;100.00;99381.65;105410;1254;65854;-47
2023/10/08 08:48:00;;;;;;;2.50;0.20;;;;;;;10.00;100.00;99376.41;105527;1257;71466;-49
2023/10/08 08:50:28;;;;;;;0.50;0.20;;;;;;;10.09;100.00;99369.30;104694;1260;60549;-49
2023/10/08 08:52:56;;;;;;;0.80;0.20;;;;;;;10.20;100.00;99371.08;104841;1260;60444;-48
2023/10/08 08:55:25;;;;;;;2.30;0.20;;;;;;;10.24;100.00;99370.31;104855;1260;72646;-47
2023/10/08 08:57:52;;;;;;;0.60;0.10;;;;;;;10.20;100.00;99364.26;108796;1254;69143;-49
2023/10/08 09:00:20;;;;;;;0.30;0.20;;;;;;;10.14;100.00;99369.20;105663;1254;72690;-49
2023/10/08 09:02:49;;;;;;;1.80;0.20;;;;;;;10.12;100.00;99364.48;106438;1254;60888;-49
2023/10/08 09:05:33;;;;;;;0.30;0.10;;;;;;;10.09;100.00;99366.42;105436;1254;60418;-47
2023/10/08 09:08:04;;;;;;;0.40;0.20;;;;;;;10.05;100.00;99368.44;104580;1254;74330;-49
2023/10/08 09:10:37;;;;;;;0.90;0.20;;;;;;;10.03;100.00;99372.48;106250;1254;68496;-48
2023/10/08 09:13:07;;;;;;;0.20;0.10;;;;;;;10.07;100.00;99378.01;108884;1254;72493;-49
2023/10/08 09:15:36;;;;;;;0.40;0.20;;;;;;;10.13;100.00;99370.84;105930;1254;61042;-48
2023/10/08 09:18:04;;;;;;;0.90;0.20;;;;;;;10.19;100.00;99371.49;105324;1254;60464;-49
2023/10/08 09:20:42;;;;;;;0.60;0.20;;;;;;;10.26;100.00;99365.02;109031;1254;72685;-49
2023/10/08 09:23:17;;;;;;;3.70;0.30;;;;;;;10.37;100.00;99374.46;107088;1257;67420;-47
2023/10/08 09:25:45;;;;;;;0.90;0.10;;;;;;;10.47;100.00;99372.88;109007;1254;72641;-50
2023/10/08 09:28:13;;;;;;;0.50;0.10;;;;;;;10.53;100.00;99371.46;108910;1256;60541;-51
2023/10/08 09:30:41;;;;;;;0.40;0.10;;;;;;;10.54;100.00;99367.61;108885;1253;60089;-50
2023/10/08 09:33:09;;;;;;;2.90;0.20;;;;;;;10.52;100.00;99373.33;109022;1254;72957;-48
2023/10/08 09:35:37;;;;;;;0.70;0.20;;;;;;;10.52;100.00;99365.07;109118;1254;65790;-51
2023/10/08 09:38:08;;;;;;;0.70;0.10;;;;;;;10.51;100.00;99366.73;108953;1258;73087;-52
2023/10/08 09:40:46;;;;;;;1.00;0.20;;;;;;;10.51;100.00;99362.41;109087;1254;58714;-50
2023/10/08 09:43:15;;;;;;;0.40;0.20;;;;;;;10.57;100.00;99360.45;109013;1254;60274;-50
2023/10/08 09:45:46;;;;;;;1.90;0.10;;;;;;;10.69;100.00;99365.76;108807;1254;72912;-51
2023/10/08 09:48:16;;;;;;;0.40;0.10;;;;;;;10.77;100.00;99361.55;108948;1254;66694;-51
2023/10/08 09:50:44;;;;;;;0.30;0.10;;;;;;;10.79;100.00;99365.17;108889;1257;72650;-49
2023/10/08 09:53:19;;;;;;;0.30;0.20;;;;;;;10.81;100.00;99367.23;108776;1254;60082;-51
2023/10/08 09:55:54;;;;;;;0.60;0.10;;;;;;;10.78;100.00;99364.89;108932;1254;60089;-49
2023/10/08 09:58:22;;;;;;;1.00;0.20;;;;;;;10.76;100.00;99371.30;108936;1257;72621;-51
2023/10/08 10:00:50;;;;;;;0.40;0.20;;;;;;;10.77;100.00;99381.09;108752;1254;67003;-47
2023/10/08 10:03:18;;;;;;;5.40;0.10;;;;;;;10.83;100.00;99375.73;108821;1254;72757;-49
2023/10/08 10:05:48;;;;;;;0.40;0.20;;;;;;;10.89;100.00;99373.78;108965;1254;60147;-49
2023/10/08 10:08:15;;;;;;;0.30;0.10;;;;;;;10.95;100.00;99374.85;106011;1256;60536;-52
2023/10/08 10:10:47;;;;;;;0.60;0.10;;;;;;;11.03;100.00;99379.13;104563;1254;72611;-51
2023/10/08 10:13:16;;;;;;;0.40;0.10;;;;;;;11.07;100.00;99369.72;104403;1254;68651;-49
2023/10/08 10:15:44;;;;;;;0.40;0.20;;;;;;;11.09;100.00;99376.77;104866;1259;71211;-50
2023/10/08 10:18:15;;;;;;;0.30;0.20;;;;;;;11.07;100.00;99376.86;108037;1254;60430;-50
2023/10/08 10:20:50;;;;;;;0.30;0.10;;;;;;;11.01;100.00;99381.71;104860;1254;60646;-49
2023/10/08 10:23:37;;;;;;;0.60;0.20;;;;;;;10.92;100.00;99384.56;104603;1254;74603;-48
2023/10/08 10:26:28;;;;;;;0.40;0.20;;;;;;;10.86;100.00;99375.58;105796;1257;66822;-50
2023/10/08 10:29:14;;;;;;;0.50;0.20;;;;;;;10.83;100.00;99380.91;106059;1258;71577;-51
2023/10/08 10:31:44;;;;;;;0.40;0.10;;;;;;;10.80;100.00;99374.46;108956;1254;60110;-52
2023/10/08 10:34:13;;;;;;;0.70;0.10;;;;;;;10.79;100.00;99371.48;109024;1254;61166;-49
2023/10/08 10:36:41;;;;;;;0.70;0.20;;;;;;;10.82;100.00;99371.46;105712;1254;74486;-49
2023/10/08 10:39:26;;;;;;;1.60;0.20;;;;;;;10.93;100.00;99378.77;104870;1254;66456;-51
2023/10/08 10:41:57;;;;;;;2.30;0.20;;;;;;;11.09;100.00;99378.23;104795;1259;74789;-49
2023/10/08 10:44:25;;;;;;;0.20;0.20;;;;;;;11.21;100.00;99380.73;109022;1254;59286;-51
2023/10/08 10:47:25;;;;;;;1.50;0.20;;;;;;;11.28;100.00;99373.01;108995;1254;58794;-51
2023/10/08 10:52:44;;;;;;;1.80;0.10;;;;;;;11.26;100.00;99381.89;106683;1254;66343;-48
2023/10/08 10:57:44;;;;;;;5.10;0.20;;;;;;;11.23;100.00;99371.67;104748;1255;60918;-53
2023/10/08 11:03:04;;;;;;;0.30;0.20;;;;;;;11.35;100.00;99376.34;104820;1254;74046;-50
2023/10/08 11:05:36;;;;;;;0.30;0.10;;;;;;;11.40;100.00;99372.16;104905;1254;65651;-49
2023/10/08 11:08:09;;;;;;;1.00;0.20;;;;;;;11.37;100.00;99370.30;105226;1254;71449;-49
2023/10/08 11:10:38;;;;;;;0.50;0.10;;;;;;;11.35;100.00;99373.67;105211;1258;62242;-51
2023/10/08 11:13:14;;;;;;;1.50;0.10;;;;;;;11.35;100.00;99358.59;104833;1254;60558;-50
2023/10/08 11:15:42;;;;;;;0.70;0.10;;;;;;;11.38;100.00;99366.33;105369;1254;72629;-51
2023/10/08 11:18:10;;;;;;;1.30;0.10;;;;;;;11.45;100.00;99372.23;107481;1257;66076;-51
2023/10/08 11:20:44;;;;;;;0.50;0.10;;;;;;;11.50;100.00;99367.98;105631;1255;73373;-48
2023/10/08 11:23:35;;;;;;;0.30;0.10;;;;;;;11.52;100.00;99358.50;105086;1259;60661;-51
2023/10/08 11:26:06;;;;;;;2.00;0.10;;;;;;;11.52;100.00;99368.71;104573;1260;60518;-49
2023/10/08 11:28:47;;;;;;;1.40;0.20;;;;;;;11.51;100.00;99372.77;104667;1259;73888;-51
2023/10/08 11:31:19;;;;;;;4.30;0.20;;;;;;;11.44;100.00;99378.70;104554;1259;65528;-52
2023/10/08 11:33:56;;;;;;;1.10;0.10;;;;;;;11.38;100.00;99375.15;105396;1258;71479;-51
2023/10/08 11:36:33;;;;;;;0.90;0.20;;;;;;;11.31;100.00;99379.45;104431;1254;60653;-51
2023/10/08 11:39:14;;;;;;;0.10;0.10;;;;;;;11.27;100.00;99374.67;104716;1254;60527;-50
2023/10/08 11:41:55;;;;;;;0.70;0.10;;;;;;;11.23;100.00;99369.67;105744;1259;72431;-50
2023/10/08 11:44:23;;;;;;;0.10;0.10;;;;;;;11.22;100.00;99372.26;104505;1254;67925;-50
2023/10/08 11:46:51;;;;;;;0.30;0.10;;;;;;;11.24;100.00;99364.04;104764;1257;71030;-50
2023/10/08 11:49:19;;;;;;;0.10;0.10;;;;;;;11.26;100.00;99368.48;104978;1254;60549;-52
2023/10/08 11:51:46;;;;;;;0.80;0.10;;;;;;;11.29;100.00;99361.63;104791;1259;60550;-50
2023/10/08 11:54:14;;;;;;;0.10;0.10;;;;;;;11.36;100.00;99360.52;104623;1255;76178;-50
2023/10/08 11:56:42;;;;;;;0.20;0.10;;;;;;;11.43;100.00;99369.61;106260;1254;65679;-49
2023/10/08 11:59:11;;;;;;;0.20;0.10;;;;;;;11.48;100.00;99368.11;109019;1253;72722;-53
2023/10/08 12:01:42;;;;;;;0.30;0.20;;;;;;;11.51;100.00;99379.93;105139;1254;60457;-50
2023/10/08 12:04:15;;;;;;;3.90;0.30;;;;;;;11.46;100.00;99375.21;107610;1254;60664;-50
2023/10/08 12:06:47;;;;;;;0.30;0.20;;;;;;;11.38;100.00;99375.31;105107;1254;72556;-50
2023/10/08 12:09:14;;;;;;;1.70;0.20;;;;;;;11.31;100.00;99378.95;104735;1254;67070;-53
2023/10/08 12:11:42;;;;;;;0.70;0.10;;;;;;;11.24;100.00;99371.23;106799;1257;72403;-51
2023/10/08 12:14:10;;;;;;;0.00;0.00;;;;;;;11.19;100.00;99368.30;109031;1254;60607;-51
2023/10/08 12:16:40;;;;;;;1.20;0.20;;;;;;;11.18;100.00;99368.21;106603;1254;60701;-50
2023/10/08 12:19:16;;;;;;;0.80;0.10;;;;;;;11.16;100.00;99373.48;105377;1257;73855;-50
2023/10/08 12:21:47;;;;;;;0.40;0.10;;;;;;;11.17;100.00;99367.52;104789;1260;66433;-49
2023/10/08 12:24:15;;;;;;;4.30;0.10;;;;;;;11.16;100.00;99364.85;105019;1256;71738;-49
2023/10/08 12:26:46;;;;;;;1.50;0.10;;;;;;;11.17;100.00;99367.36;106348;1254;60332;-51
2023/10/08 12:29:14;;;;;;;1.00;0.20;;;;;;;11.16;100.00;99366.33;104800;1255;59255;-49
2023/10/08 12:31:41;;;;;;;0.50;0.10;;;;;;;11.14;100.00;99364.11;105024;1258;74490;-51
2023/10/08 12:34:11;;;;;;;0.80;0.20;;;;;;;11.13;100.00;99369.22;104933;1254;67207;-50
2023/10/08 12:36:39;;;;;;;1.40;0.10;;;;;;;11.08;100.00;99370.56;108974;1257;72767;-50
2023/10/08 12:39:14;;;;;;;0.10;0.10;;;;;;;11.02;100.00;99365.86;108978;1254;60173;-47
2023/10/08 12:41:43;;;;;;;0.30;0.10;;;;;;;10.98;100.00;99364.84;109051;1254;60112;-48
2023/10/08 12:44:11;;;;;;;0.50;0.20;;;;;;;10.95;100.00;99370.22;108975;1254;72668;-50
2023/10/08 12:46:43;;;;;;;0.30;0.10;;;;;;;10.94;100.00;99366.52;109040;1254;66347;-48
2023/10/08 12:49:10;;;;;;;4.90;0.20;;;;;;;10.93;100.00;99363.48;108977;1254;71790;-50
2023/10/08 12:51:41;;;;;;;0.20;0.10;;;;;;;10.94;100.00;99360.77;107175;1253;60443;-48
2023/10/08 12:54:21;;;;;;;0.40;0.20;;;;;;;10.95;100.00;99359.44;108944;1254;60050;-50
2023/10/08 12:56:48;;;;;;;0.70;0.10;;;;;;;10.97;100.00;99360.94;108892;1254;75775;-50
2023/10/08 12:59:23;;;;;;;1.70;0.30;;;;;;;10.99;100.00;99359.54;105112;1259;66247;-50
2023/10/08 13:01:53;;;;;;;0.30;0.10;;;;;;;11.02;100.00;99356.02;109096;1254;74954;-51
2023/10/08 13:04:27;;;;;;;0.10;0.00;;;;;;;11.06;100.00;99357.39;107749;1253;60200;-50
2023/10/08 13:06:57;;;;;;;2.00;0.10;;;;;;;11.10;100.00;99361.83;107419;1254;60737;-52
2023/10/08 13:09:25;;;;;;;0.60;0.10;;;;;;;11.10;100.00;99370.81;107401;1257;73297;-50